Time,TemperatureF,DewpointF,PressureIn,WindDirection,WindDirectionDegrees,WindSpeedMPH,WindSpeedGustMPH,Humidity,HourlyPrecipIn,Conditions,Clouds,dailyrainin,SoftwareType,DateUTC
2013-07-18 00:02:00,80.0,-99.9,30.09,NNE,25,11.0,13.0,-999,-99.99,,,-99.99,,2013-07-18 05:02:00,
2013-07-18 00:11:00,80.0,-99.9,30.09,NNE,26,11.0,13.0,-999,-99.99,,,-99.99,,2013-07-18 05:11:00,
2013-07-18 00:32:00,80.0,-99.9,30.09,NNE,29,11.0,12.0,-999,-99.99,,,-99.99,,2013-07-18 05:32:00,
2013-07-18 00:43:00,79.0,-99.9,30.09,NNE,28,10.0,13.0,-999,-99.99,,,-99.99,,2013-07-18 05:43:00,
2013-07-18 00:52:00,79.0,-99.9,30.09,NNE,29,10.0,13.0,-999,-99.99,,,-99.99,,2013-07-18 05:52:00,
2013-07-18 01:01:00,79.0,-99.9,30.09,NNE,30,10.0,12.0,-999,-99.99,,,-99.99,,2013-07-18 06:01:00,
2013-07-18 01:12:00,79.0,-99.9,30.09,NNE,29,11.0,12.0,-999,-99.99,,,-99.99,,2013-07-18 06:12:00,
2013-07-18 01:32:00,79.0,-99.9,30.09,NNE,29,9.0,11.0,-999,-99.99,,,-99.99,,2013-07-18 06:32:00,
2013-07-18 01:43:00,79.0,-99.9,30.09,NNE,27,9.0,10.0,-999,-99.99,,,-99.99,,2013-07-18 06:43:00,
2013-07-18 01:52:00,79.0,-99.9,30.09,NNE,32,9.0,11.0,-999,-99.99,,,-99.99,,2013-07-18 06:52:00,
2013-07-18 02:01:00,80.0,-99.9,30.09,ENE,58,9.0,12.0,-999,-99.99,,,-99.99,,2013-07-18 07:01:00,
2013-07-18 02:12:00,81.0,-99.9,30.08,ENE,71,12.0,13.0,-999,-99.99,,,-99.99,,2013-07-18 07:12:00,
2013-07-18 02:32:00,80.0,-99.9,30.08,East,98,21.0,24.0,-999,-99.99,,,-99.99,,2013-07-18 07:32:00,
2013-07-18 02:42:00,79.0,-99.9,30.08,East,79,20.0,23.0,-999,-99.99,,,-99.99,,2013-07-18 07:42:00,
2013-07-18 02:52:00,79.0,-99.9,30.08,East,97,14.0,18.0,-999,-99.99,,,-99.99,,2013-07-18 07:52:00,
2013-07-18 03:01:00,79.0,-99.9,30.07,East,79,9.0,12.0,-999,-99.99,,,-99.99,,2013-07-18 08:01:00,
2013-07-18 03:11:00,80.0,-99.9,30.07,East,86,11.0,13.0,-999,-99.99,,,-99.99,,2013-07-18 08:11:00,
2013-07-18 03:32:00,80.0,-99.9,30.06,NE,55,6.0,8.0,-999,-99.99,,,-99.99,,2013-07-18 08:32:00,
2013-07-18 03:42:00,80.0,-99.9,30.06,NE,56,6.0,8.0,-999,-99.99,,,-99.99,,2013-07-18 08:42:00,
2013-07-18 03:52:00,80.0,-99.9,30.06,NE,37,5.0,8.0,-999,-99.99,,,-99.99,,2013-07-18 08:52:00,
2013-07-18 04:01:00,79.0,-99.9,30.06,North,6,6.0,7.0,-999,-99.99,,,-99.99,,2013-07-18 09:01:00,
2013-07-18 04:11:00,79.0,-99.9,30.06,North,4,5.0,7.0,-999,-99.99,,,-99.99,,2013-07-18 09:11:00,
2013-07-18 04:32:00,80.0,-99.9,30.06,NE,52,9.0,10.0,-999,-99.99,,,-99.99,,2013-07-18 09:32:00,
2013-07-18 04:42:00,80.0,-99.9,30.06,NE,48,6.0,8.0,-999,-99.99,,,-99.99,,2013-07-18 09:42:00,
2013-07-18 04:52:00,80.0,-99.9,30.06,NE,51,6.0,7.0,-999,-99.99,,,-99.99,,2013-07-18 09:52:00,
2013-07-18 05:01:00,80.0,-99.9,30.05,NE,49,7.0,8.0,-999,-99.99,,,-99.99,,2013-07-18 10:01:00,
2013-07-18 05:11:00,80.0,-99.9,30.05,NE,51,6.0,8.0,-999,-99.99,,,-99.99,,2013-07-18 10:11:00,
2013-07-18 05:32:00,81.0,-99.9,30.05,ENE,63,6.0,8.0,-999,-99.99,,,-99.99,,2013-07-18 10:32:00,
2013-07-18 05:43:00,81.0,-99.9,30.05,NE,54,6.0,8.0,-999,-99.99,,,-99.99,,2013-07-18 10:43:00,
2013-07-18 05:52:00,80.0,-99.9,30.05,NE,45,4.0,6.0,-999,-99.99,,,-99.99,,2013-07-18 10:52:00,
2013-07-18 06:01:00,81.0,-99.9,30.05,NE,52,7.0,8.0,-999,-99.99,,,-99.99,,2013-07-18 11:01:00,
2013-07-18 06:11:00,81.0,-99.9,30.06,NE,54,6.0,8.0,-999,-99.99,,,-99.99,,2013-07-18 11:11:00,
2013-07-18 06:32:00,79.0,-99.9,30.06,North,8,8.0,14.0,-999,-99.99,,,-99.99,,2013-07-18 11:32:00,
2013-07-18 06:43:00,79.0,-99.9,30.05,NNE,31,9.0,12.0,-999,-99.99,,,-99.99,,2013-07-18 11:43:00,
2013-07-18 06:52:00,79.0,-99.9,30.05,NNE,31,9.0,12.0,-999,-99.99,,,-99.99,,2013-07-18 11:52:00,
2013-07-18 07:11:00,78.0,-99.9,30.06,NE,41,15.0,20.0,-999,-99.99,,,-99.99,,2013-07-18 12:11:00,
2013-07-18 07:33:00,78.0,-99.9,30.06,ENE,64,19.0,22.0,-999,-99.99,,,-99.99,,2013-07-18 12:33:00,
2013-07-18 07:42:00,78.0,-99.9,30.07,ENE,67,20.0,24.0,-999,-99.99,,,-99.99,,2013-07-18 12:42:00,
2013-07-18 07:52:00,77.0,-99.9,30.08,East,84,18.0,21.0,-999,-99.99,,,-99.99,,2013-07-18 12:52:00,
2013-07-18 08:01:00,75.0,-99.9,30.09,ESE,122,13.0,20.0,-999,-99.99,,,-99.99,,2013-07-18 13:01:00,
2013-07-18 08:11:00,75.0,-99.9,30.08,SE,129,10.0,15.0,-999,-99.99,,,-99.99,,2013-07-18 13:11:00,
2013-07-18 08:33:00,76.0,-99.9,30.10,SE,130,6.0,7.0,-999,-99.99,,,-99.99,,2013-07-18 13:33:00,
2013-07-18 08:43:00,76.0,-99.9,30.10,ESE,103,7.0,8.0,-999,-99.99,,,-99.99,,2013-07-18 13:43:00,
2013-07-18 08:53:00,76.0,-99.9,30.10,East,101,11.0,15.0,-999,-99.99,,,-99.99,,2013-07-18 13:53:00,
2013-07-18 09:02:00,76.0,-99.9,30.10,ESE,105,7.0,11.0,-999,-99.99,,,-99.99,,2013-07-18 14:02:00,
2013-07-18 09:12:00,76.0,-99.9,30.10,East,93,11.0,14.0,-999,-99.99,,,-99.99,,2013-07-18 14:12:00,
2013-07-18 09:33:00,76.0,-99.9,30.10,East,97,6.0,7.0,-999,-99.99,,,-99.99,,2013-07-18 14:33:00,
2013-07-18 09:43:00,77.0,-99.9,30.10,East,97,4.0,6.0,-999,-99.99,,,-99.99,,2013-07-18 14:43:00,
2013-07-18 09:53:00,77.0,-99.9,30.10,East,82,5.0,6.0,-999,-99.99,,,-99.99,,2013-07-18 14:53:00,
2013-07-18 10:01:00,77.0,-99.9,30.10,East,95,6.0,9.0,-999,-99.99,,,-99.99,,2013-07-18 15:01:00,
2013-07-18 10:11:00,78.0,-99.9,30.09,ESE,108,9.0,11.0,-999,-99.99,,,-99.99,,2013-07-18 15:11:00,
2013-07-18 10:32:00,78.0,-99.9,30.09,ESE,102,6.0,8.0,-999,-99.99,,,-99.99,,2013-07-18 15:32:00,
2013-07-18 10:43:00,78.0,-99.9,30.10,ESE,104,5.0,7.0,-999,-99.99,,,-99.99,,2013-07-18 15:43:00,
2013-07-18 10:53:00,78.0,-99.9,30.10,ESE,103,7.0,9.0,-999,-99.99,,,-99.99,,2013-07-18 15:53:00,
2013-07-18 11:01:00,79.0,-99.9,30.10,East,97,7.0,8.0,-999,-99.99,,,-99.99,,2013-07-18 16:01:00,
2013-07-18 11:12:00,79.0,-99.9,30.11,ESE,111,7.0,9.0,-999,-99.99,,,-99.99,,2013-07-18 16:12:00,
2013-07-18 11:32:00,80.0,-99.9,30.11,ESE,108,7.0,10.0,-999,-99.99,,,-99.99,,2013-07-18 16:32:00,
2013-07-18 11:42:00,80.0,-99.9,30.11,ESE,105,8.0,9.0,-999,-99.99,,,-99.99,,2013-07-18 16:42:00,
2013-07-18 11:52:00,80.0,-99.9,30.11,ESE,107,10.0,11.0,-999,-99.99,,,-99.99,,2013-07-18 16:52:00,
2013-07-18 12:02:00,78.0,-99.9,30.12,ESE,112,18.0,23.0,-999,-99.99,,,-99.99,,2013-07-18 17:02:00,
2013-07-18 12:11:00,77.0,-99.9,30.11,SE,124,9.0,17.0,-999,-99.99,,,-99.99,,2013-07-18 17:11:00,
2013-07-18 12:33:00,78.0,-99.9,30.10,East,90,3.0,5.0,-999,-99.99,,,-99.99,,2013-07-18 17:33:00,
2013-07-18 12:43:00,79.0,-99.9,30.09,East,81,5.0,6.0,-999,-99.99,,,-99.99,,2013-07-18 17:43:00,
2013-07-18 12:52:00,79.0,-99.9,30.09,ENE,78,5.0,6.0,-999,-99.99,,,-99.99,,2013-07-18 17:52:00,
2013-07-18 13:01:00,80.0,-99.9,30.10,East,81,9.0,11.0,-999,-99.99,,,-99.99,,2013-07-18 18:01:00,
2013-07-18 13:12:00,80.0,-99.9,30.10,ENE,68,9.0,12.0,-999,-99.99,,,-99.99,,2013-07-18 18:12:00,
2013-07-18 13:33:00,81.0,-99.9,30.09,East,90,14.0,16.0,-999,-99.99,,,-99.99,,2013-07-18 18:33:00,
2013-07-18 13:43:00,81.0,-99.9,30.09,ENE,76,10.0,15.0,-999,-99.99,,,-99.99,,2013-07-18 18:43:00,
2013-07-18 13:52:00,81.0,-99.9,30.09,ENE,61,10.0,13.0,-999,-99.99,,,-99.99,,2013-07-18 18:52:00,
2013-07-18 14:02:00,82.0,-99.9,30.07,ENE,61,9.0,11.0,-999,-99.99,,,-99.99,,2013-07-18 19:02:00,
2013-07-18 14:11:00,82.0,-99.9,30.07,NE,56,9.0,9.0,-999,-99.99,,,-99.99,,2013-07-18 19:11:00,
2013-07-18 14:32:00,82.0,-99.9,30.06,NE,49,7.0,10.0,-999,-99.99,,,-99.99,,2013-07-18 19:32:00,
2013-07-18 14:43:00,82.0,-99.9,30.05,NE,47,7.0,9.0,-999,-99.99,,,-99.99,,2013-07-18 19:43:00,
2013-07-18 14:53:00,82.0,-99.9,30.05,ENE,60,7.0,8.0,-999,-99.99,,,-99.99,,2013-07-18 19:53:00,
2013-07-18 15:02:00,82.0,-99.9,30.05,East,81,11.0,13.0,-999,-99.99,,,-99.99,,2013-07-18 20:02:00,
2013-07-18 15:11:00,82.0,-99.9,30.04,ENE,76,10.0,14.0,-999,-99.99,,,-99.99,,2013-07-18 20:11:00,
2013-07-18 15:32:00,83.0,-99.9,30.04,ENE,72,11.0,13.0,-999,-99.99,,,-99.99,,2013-07-18 20:32:00,
2013-07-18 15:43:00,83.0,-99.9,30.04,ENE,66,11.0,14.0,-999,-99.99,,,-99.99,,2013-07-18 20:43:00,
2013-07-18 15:52:00,83.0,-99.9,30.04,East,84,13.0,15.0,-999,-99.99,,,-99.99,,2013-07-18 20:52:00,
2013-07-18 16:01:00,83.0,-99.9,30.04,East,91,11.0,13.0,-999,-99.99,,,-99.99,,2013-07-18 21:01:00,
2013-07-18 16:11:00,82.0,-99.9,30.04,East,80,10.0,12.0,-999,-99.99,,,-99.99,,2013-07-18 21:11:00,
2013-07-18 16:32:00,82.0,-99.9,30.03,ENE,77,11.0,13.0,-999,-99.99,,,-99.99,,2013-07-18 21:32:00,
2013-07-18 16:43:00,83.0,-99.9,30.03,ENE,78,10.0,12.0,-999,-99.99,,,-99.99,,2013-07-18 21:43:00,
2013-07-18 16:52:00,82.0,-99.9,30.03,East,90,10.0,13.0,-999,-99.99,,,-99.99,,2013-07-18 21:52:00,
2013-07-18 17:01:00,82.0,-99.9,30.02,East,94,11.0,16.0,-999,-99.99,,,-99.99,,2013-07-18 22:01:00,
2013-07-18 17:11:00,82.0,-99.9,30.02,East,87,12.0,15.0,-999,-99.99,,,-99.99,,2013-07-18 22:11:00,
2013-07-18 17:32:00,82.0,-99.9,30.02,East,80,11.0,13.0,-999,-99.99,,,-99.99,,2013-07-18 22:32:00,
2013-07-18 17:43:00,82.0,-99.9,30.01,East,95,10.0,12.0,-999,-99.99,,,-99.99,,2013-07-18 22:43:00,
2013-07-18 17:53:00,82.0,-99.9,30.00,East,96,9.0,12.0,-999,-99.99,,,-99.99,,2013-07-18 22:53:00,
2013-07-18 18:02:00,82.0,-99.9,30.00,East,81,11.0,13.0,-999,-99.99,,,-99.99,,2013-07-18 23:02:00,
2013-07-18 18:11:00,82.0,-99.9,30.00,ENE,65,10.0,13.0,-999,-99.99,,,-99.99,,2013-07-18 23:11:00,
2013-07-18 18:32:00,82.0,-99.9,29.98,East,82,8.0,12.0,-999,-99.99,,,-99.99,,2013-07-18 23:32:00,
2013-07-18 18:42:00,82.0,-99.9,29.98,ENE,77,8.0,10.0,-999,-99.99,,,-99.99,,2013-07-18 23:42:00,
2013-07-18 18:52:00,82.0,-99.9,29.98,East,79,9.0,11.0,-999,-99.99,,,-99.99,,2013-07-18 23:52:00,
2013-07-18 19:01:00,83.0,-99.9,29.98,East,90,7.0,12.0,-999,-99.99,,,-99.99,,2013-07-19 00:01:00,
2013-07-18 19:11:00,83.0,-99.9,29.97,East,81,8.0,12.0,-999,-99.99,,,-99.99,,2013-07-19 00:11:00,
2013-07-18 19:32:00,83.0,-99.9,29.97,East,85,8.0,10.0,-999,-99.99,,,-99.99,,2013-07-19 00:32:00,
2013-07-18 19:43:00,83.0,-99.9,29.97,East,94,7.0,9.0,-999,-99.99,,,-99.99,,2013-07-19 00:43:00,
2013-07-18 19:52:00,83.0,-99.9,29.97,East,95,6.0,8.0,-999,-99.99,,,-99.99,,2013-07-19 00:52:00,
2013-07-18 20:01:00,82.0,-99.9,29.98,East,93,7.0,9.0,-999,-99.99,,,-99.99,,2013-07-19 01:01:00,
2013-07-18 20:11:00,82.0,-99.9,29.98,East,98,6.0,10.0,-999,-99.99,,,-99.99,,2013-07-19 01:11:00,
2013-07-18 20:32:00,82.0,-99.9,29.98,East,88,8.0,11.0,-999,-99.99,,,-99.99,,2013-07-19 01:32:00,
2013-07-18 20:42:00,82.0,-99.9,29.98,East,90,8.0,9.0,-999,-99.99,,,-99.99,,2013-07-19 01:42:00,
2013-07-18 20:52:00,82.0,-99.9,29.98,East,89,5.0,7.0,-999,-99.99,,,-99.99,,2013-07-19 01:52:00,
2013-07-18 21:02:00,82.0,-99.9,29.98,East,98,6.0,9.0,-999,-99.99,,,-99.99,,2013-07-19 02:02:00,
2013-07-18 21:11:00,82.0,-99.9,29.98,East,90,8.0,9.0,-999,-99.99,,,-99.99,,2013-07-19 02:11:00,
2013-07-18 21:32:00,82.0,-99.9,29.99,East,83,9.0,11.0,-999,-99.99,,,-99.99,,2013-07-19 02:32:00,
2013-07-18 21:43:00,82.0,-99.9,29.99,East,82,10.0,12.0,-999,-99.99,,,-99.99,,2013-07-19 02:43:00,
2013-07-18 21:52:00,82.0,-99.9,29.99,East,92,9.0,11.0,-999,-99.99,,,-99.99,,2013-07-19 02:52:00,
2013-07-18 22:01:00,82.0,-99.9,29.99,East,93,10.0,11.0,-999,-99.99,,,-99.99,,2013-07-19 03:01:00,
2013-07-18 22:11:00,82.0,-99.9,30.00,East,94,8.0,10.0,-999,-99.99,,,-99.99,,2013-07-19 03:11:00,
2013-07-18 22:32:00,82.0,-99.9,30.00,East,90,9.0,11.0,-999,-99.99,,,-99.99,,2013-07-19 03:32:00,
2013-07-18 22:43:00,82.0,-99.9,30.01,East,85,12.0,13.0,-999,-99.99,,,-99.99,,2013-07-19 03:43:00,
2013-07-18 22:52:00,82.0,-99.9,30.01,East,90,9.0,11.0,-999,-99.99,,,-99.99,,2013-07-19 03:52:00,
2013-07-18 23:02:00,82.0,-99.9,30.01,East,94,11.0,13.0,-999,-99.99,,,-99.99,,2013-07-19 04:02:00,
2013-07-18 23:12:00,82.0,-99.9,30.02,East,97,9.0,13.0,-999,-99.99,,,-99.99,,2013-07-19 04:12:00,
2013-07-18 23:33:00,82.0,-99.9,30.02,East,100,11.0,13.0,-999,-99.99,,,-99.99,,2013-07-19 04:33:00,
2013-07-18 23:44:00,82.0,-99.9,30.03,East,97,12.0,15.0,-999,-99.99,,,-99.99,,2013-07-19 04:44:00,
2013-07-18 23:52:00,82.0,-99.9,30.03,East,96,12.0,13.0,-999,-99.99,,,-99.99,,2013-07-19 04:52:00,